Time;durP1;ratioP1;P1;durP2;ratioP2;P2;SDS_P1;SDS_P2;PMS_P1;PMS_P2;Temp;Humidity;BMP_temperature;BMP_pressure;BME280_temperature;BME280_humidity;BME280_pressure;Samples;Min_cycle;Max_cycle;Signal;HPM_P1;HPM_P2
2021/05/02 00:01:08;;;;;;;25.15;10.57;;;;;;;5.30;100.00;101666.75;5064527;28;20040;-81
2021/05/02 00:03:34;;;;;;;14.45;10.68;;;;;;;5.29;100.00;101668.50;5070668;28;20037;-80
2021/05/02 00:06:03;;;;;;;21.55;11.80;;;;;;;5.31;100.00;101677.19;5064412;28;20457;-80
2021/05/02 00:08:28;;;;;;;17.95;12.18;;;;;;;5.34;100.00;101669.31;5069391;28;20033;-80
2021/05/02 00:10:57;;;;;;;17.98;12.00;;;;;;;5.19;100.00;101669.47;5066234;28;20031;-79
2021/05/02 00:13:26;;;;;;;19.27;11.68;;;;;;;5.27;100.00;101675.53;5055176;28;20027;-80
2021/05/02 00:15:52;;;;;;;19.85;11.57;;;;;;;5.12;100.00;101688.72;5073092;28;20029;-80
2021/05/02 00:18:23;;;;;;;19.05;12.02;;;;;;;5.05;100.00;101673.94;5071694;28;20057;-80
2021/05/02 00:20:49;;;;;;;19.92;11.90;;;;;;;5.14;100.00;101681.75;5068185;28;20131;-80
2021/05/02 00:23:15;;;;;;;17.35;12.05;;;;;;;5.09;100.00;101683.53;5069714;28;20029;-81
2021/05/02 00:25:41;;;;;;;23.02;12.98;;;;;;;5.07;100.00;101686.16;5065067;28;20024;-80
2021/05/02 00:28:08;;;;;;;15.95;11.82;;;;;;;5.09;100.00;101668.69;5074098;28;20039;-80
2021/05/02 00:30:34;;;;;;;17.65;12.02;;;;;;;5.16;100.00;101693.94;5071462;28;20043;-80
2021/05/02 00:33:01;;;;;;;16.75;13.18;;;;;;;4.94;100.00;101676.66;5079853;28;20071;-80
2021/05/02 00:35:27;;;;;;;16.92;12.68;;;;;;;5.10;100.00;101687.88;5070046;28;20024;-79
2021/05/02 00:37:54;;;;;;;17.55;12.32;;;;;;;4.93;100.00;101673.19;5071569;28;20024;-80
2021/05/02 00:40:49;;;;;;;17.35;12.32;;;;;;;4.97;100.00;101691.47;5068093;28;20055;-79
2021/05/02 00:43:26;;;;;;;22.75;11.88;;;;;;;4.96;100.00;101700.22;5062739;28;20051;-79
2021/05/02 00:46:07;;;;;;;16.30;11.68;;;;;;;4.72;100.00;101677.69;5066066;28;20029;-79
2021/05/02 00:48:44;;;;;;;22.40;12.73;;;;;;;4.87;100.00;101701.16;5066778;28;20065;-79
2021/05/02 00:51:13;;;;;;;19.58;12.13;;;;;;;4.96;100.00;101703.72;5065888;28;20024;-79
2021/05/02 00:53:58;;;;;;;16.00;12.90;;;;;;;4.94;100.00;101697.63;5067030;28;20024;-79
2021/05/02 00:56:30;;;;;;;18.10;12.02;;;;;;;4.91;100.00;101700.25;5056657;28;20040;-79
2021/05/02 00:59:01;;;;;;;21.35;12.52;;;;;;;4.93;100.00;101698.50;5068243;28;20055;-79
2021/05/02 01:01:30;;;;;;;19.08;12.35;;;;;;;4.91;100.00;101701.13;5071589;28;20024;-80
2021/05/02 01:03:58;;;;;;;17.85;12.30;;;;;;;4.89;100.00;101697.66;5066304;28;20037;-80
2021/05/02 01:06:24;;;;;;;17.85;11.43;;;;;;;4.89;100.00;101697.66;5069044;28;20035;-79
2021/05/02 01:08:51;;;;;;;20.88;12.00;;;;;;;4.87;100.00;101703.75;5069328;28;20029;-79
2021/05/02 01:11:18;;;;;;;20.27;11.63;;;;;;;4.76;100.00;101703.84;5069246;28;20389;-79
2021/05/02 01:13:57;;;;;;;14.02;11.38;;;;;;;4.71;100.00;101692.53;5060393;28;20048;-79
2021/05/02 01:16:24;;;;;;;21.30;12.25;;;;;;;4.65;100.00;101700.44;5057350;28;20460;-79
2021/05/02 01:18:52;;;;;;;19.45;12.63;;;;;;;4.64;100.00;101704.81;5065856;28;20066;-78
2021/05/02 01:21:18;;;;;;;23.98;13.00;;;;;;;4.50;100.00;101698.78;5063492;28;20070;-78
2021/05/02 01:23:46;;;;;;;17.60;10.80;;;;;;;4.55;100.00;101699.63;5062586;28;20024;-77
2021/05/02 01:26:13;;;;;;;18.08;11.00;;;;;;;4.62;100.00;101706.56;5066731;28;20028;-78
2021/05/02 01:28:42;;;;;;;18.00;11.05;;;;;;;4.57;100.00;101708.34;5060357;28;20040;-77
2021/05/02 01:31:07;;;;;;;16.30;10.00;;;;;;;4.57;100.00;101713.59;5064809;28;20037;-79
2021/05/02 01:33:33;;;;;;;13.82;10.57;;;;;;;4.60;100.00;101712.69;5065215;28;20037;-79
2021/05/02 01:35:59;;;;;;;17.05;10.07;;;;;;;4.52;100.00;101710.13;5063468;28;20059;-79
2021/05/02 01:38:25;;;;;;;14.35;9.18;;;;;;;4.53;100.00;101711.00;5066685;28;20032;-79
2021/05/02 01:40:53;;;;;;;18.65;8.85;;;;;;;4.60;100.00;101704.84;5070011;28;20056;-79
2021/05/02 01:43:18;;;;;;;20.30;9.38;;;;;;;4.59;100.00;101710.94;5064223;28;20025;-79
2021/05/02 01:45:44;;;;;;;17.75;9.80;;;;;;;4.41;100.00;101706.66;5063129;28;20054;-78
2021/05/02 01:48:10;;;;;;;14.98;8.98;;;;;;;4.52;100.00;101712.75;5070486;28;20025;-79
2021/05/02 01:51:08;;;;;;;15.10;8.20;;;;;;;4.46;100.00;101717.13;5065935;28;20040;-79
2021/05/02 01:53:35;;;;;;;17.40;7.90;;;;;;;4.40;100.00;101712.78;5042661;28;20041;-79
2021/05/02 01:56:01;;;;;;;18.92;8.95;;;;;;;4.26;100.00;101717.22;5046349;28;20045;-79
2021/05/02 01:58:28;;;;;;;18.08;9.82;;;;;;;4.30;100.00;101717.19;5041247;28;20056;-79
2021/05/02 02:00:56;;;;;;;16.73;9.02;;;;;;;4.26;100.00;101718.09;5043175;28;20115;-78
2021/05/02 02:03:22;;;;;;;14.63;8.20;;;;;;;4.18;100.00;101725.13;5046596;28;20044;-78
2021/05/02 02:05:49;;;;;;;15.23;8.70;;;;;;;4.03;100.00;101725.19;5028327;28;20398;-79
2021/05/02 02:08:15;;;;;;;17.02;8.65;;;;;;;4.00;100.00;101720.81;5038768;28;20033;-78
2021/05/02 02:10:43;;;;;;;13.18;8.20;;;;;;;4.02;100.00;101733.91;5040391;28;20040;-78
2021/05/02 02:13:11;;;;;;;12.02;8.43;;;;;;;4.03;100.00;101725.19;5041477;28;20096;-78
2021/05/02 02:15:37;;;;;;;15.27;9.15;;;;;;;4.08;100.00;101723.41;5046361;28;20571;-79
2021/05/02 02:18:03;;;;;;;18.90;8.95;;;;;;;4.04;100.00;101724.28;5044470;28;20041;-78
2021/05/02 02:20:55;;;;;;;13.90;8.50;;;;;;;4.29;100.00;101728.56;5047667;28;20453;-78
2021/05/02 02:23:25;;;;;;;16.48;8.23;;;;;;;4.31;100.00;101724.16;5045782;28;20045;-78
2021/05/02 02:25:53;;;;;;;17.65;10.30;;;;;;;4.33;100.00;101729.41;5046471;28;20101;-78
2021/05/02 02:28:22;;;;;;;15.75;7.75;;;;;;;4.11;100.00;101726.00;5037957;28;20419;-81
2021/05/02 02:30:56;;;;;;;17.92;10.32;;;;;;;4.06;100.00;101735.59;5066541;28;20048;-79
2021/05/02 02:33:23;;;;;;;13.40;7.70;;;;;;;4.07;100.00;101734.75;5067021;28;20070;-78
2021/05/02 02:35:53;;;;;;;19.98;8.52;;;;;;;3.90;100.00;101733.03;5067035;28;20035;-79
2021/05/02 02:38:21;;;;;;;19.75;9.30;;;;;;;3.86;100.00;101735.66;5073495;28;20051;-79
2021/05/02 02:40:49;;;;;;;12.93;7.55;;;;;;;3.88;100.00;101739.16;5062056;28;20070;-78
2021/05/02 02:43:20;;;;;;;12.30;8.90;;;;;;;3.84;100.00;101727.84;5067901;28;20108;-79
2021/05/02 02:45:46;;;;;;;12.55;8.48;;;;;;;3.78;100.00;101737.44;5068455;28;20029;-78
2021/05/02 02:48:15;;;;;;;21.35;10.15;;;;;;;3.76;100.00;101740.03;5069198;28;20111;-78
2021/05/02 02:50:44;;;;;;;19.58;10.45;;;;;;;3.60;100.00;101740.94;5061514;28;20087;-78
2021/05/02 02:53:13;;;;;;;21.30;9.98;;;;;;;3.50;100.00;101739.22;5067304;28;20021;-79
2021/05/02 02:55:39;;;;;;;23.75;10.50;;;;;;;3.43;100.00;101747.94;5072066;28;20021;-79
2021/05/02 02:58:05;;;;;;;16.35;8.27;;;;;;;3.58;100.00;101742.72;5078242;28;20091;-79
2021/05/02 03:00:33;;;;;;;15.80;9.52;;;;;;;3.62;100.00;101741.84;5077575;28;20041;-79
2021/05/02 03:03:17;;;;;;;26.17;9.15;;;;;;;4.04;100.00;101753.06;5072832;28;20045;-78
2021/05/02 03:05:46;;;;;;;12.07;7.10;;;;;;;4.21;100.00;101748.63;5072223;28;20024;-78
2021/05/02 03:08:11;;;;;;;15.57;7.78;;;;;;;4.09;100.00;101743.47;5070298;28;20029;-78
2021/05/02 03:10:41;;;;;;;12.45;6.35;;;;;;;4.24;100.00;101743.41;5066729;28;20087;-79
2021/05/02 03:13:07;;;;;;;14.05;6.65;;;;;;;4.39;100.00;101752.94;5064769;28;20025;-79
2021/05/02 03:15:32;;;;;;;11.73;6.82;;;;;;;4.31;100.00;101752.94;5061997;28;20116;-79
2021/05/02 03:18:21;;;;;;;12.27;5.93;;;;;;;4.47;100.00;101753.78;5069116;28;20115;-79
2021/05/02 03:20:55;;;;;;;12.77;5.63;;;;;;;4.25;100.00;101746.88;5067731;28;20119;-80
2021/05/02 03:23:30;;;;;;;8.57;6.35;;;;;;;4.41;100.00;101752.03;5063175;28;20029;-79
2021/05/02 03:26:00;;;;;;;8.40;5.27;;;;;;;4.37;100.00;101752.94;5059710;28;20037;-79
2021/05/02 03:28:35;;;;;;;12.65;6.00;;;;;;;4.39;100.00;101750.31;5066234;28;20265;-79
2021/05/02 03:31:03;;;;;;;9.05;5.00;;;;;;;4.51;100.00;101744.16;5064380;28;20024;-79
2021/05/02 03:33:34;;;;;;;11.52;5.00;;;;;;;4.66;100.00;101750.16;5064549;28;20115;-80
2021/05/02 03:36:05;;;;;;;12.23;5.07;;;;;;;4.84;100.00;101750.97;5070659;28;20051;-79
2021/05/02 03:38:46;;;;;;;13.40;5.15;;;;;;;4.80;100.00;101755.34;5068937;28;20094;-79
2021/05/02 03:41:12;;;;;;;7.25;4.28;;;;;;;4.75;100.00;101769.34;5068782;28;20040;-80
2021/05/02 03:43:38;;;;;;;11.13;4.43;;;;;;;4.89;100.00;101767.50;5066264;28;20143;-79
2021/05/02 03:46:04;;;;;;;9.80;4.68;;;;;;;4.82;100.00;101765.78;5047002;28;20512;-80
2021/05/02 03:48:31;;;;;;;9.05;5.07;;;;;;;4.90;100.00;101770.13;5067354;28;20041;-80
2021/05/02 03:50:57;;;;;;;10.02;4.80;;;;;;;4.94;100.00;101760.50;5064271;28;20049;-79
2021/05/02 03:53:22;;;;;;;9.63;4.20;;;;;;;4.96;100.00;101761.34;5068106;28;20093;-79
2021/05/02 03:55:48;;;;;;;11.07;4.32;;;;;;;4.92;100.00;101772.75;5073577;28;20563;-79
2021/05/02 03:58:16;;;;;;;9.30;5.55;;;;;;;4.75;100.00;101777.19;5063071;28;20052;-79
2021/05/02 04:00:43;;;;;;;16.42;4.35;;;;;;;4.82;100.00;101781.50;5084148;28;20037;-79
2021/05/02 04:03:08;;;;;;;11.38;4.93;;;;;;;4.63;100.00;101784.25;5066017;28;20040;-79
2021/05/02 04:05:34;;;;;;;8.13;3.83;;;;;;;4.72;100.00;101785.06;5074158;28;20051;-79
2021/05/02 04:08:00;;;;;;;9.15;4.22;;;;;;;4.68;100.00;101794.69;5068553;28;20073;-79
2021/05/02 04:10:25;;;;;;;9.35;3.63;;;;;;;4.43;100.00;101790.44;5069926;28;20645;-79
2021/05/02 04:12:52;;;;;;;11.15;4.50;;;;;;;4.33;100.00;101787.88;5066370;28;20028;-79
2021/05/02 04:15:17;;;;;;;10.48;4.47;;;;;;;4.38;100.00;101793.09;5067487;28;20403;-79
2021/05/02 04:17:43;;;;;;;8.27;4.18;;;;;;;4.15;100.00;101798.38;5064366;28;20095;-79
2021/05/02 04:20:10;;;;;;;7.75;3.75;;;;;;;4.47;100.00;101798.28;5068206;28;20084;-79
2021/05/02 04:22:36;;;;;;;17.48;4.32;;;;;;;4.36;100.00;101795.69;5066026;28;20032;-79
2021/05/02 04:25:03;;;;;;;8.75;4.50;;;;;;;4.34;100.00;101800.06;5070242;28;20025;-79
2021/05/02 04:27:28;;;;;;;7.13;4.03;;;;;;;4.46;100.00;101799.13;5055064;28;20029;-79
2021/05/02 04:29:56;;;;;;;9.30;4.70;;;;;;;4.52;100.00;101800.84;5067662;28;20055;-79
2021/05/02 04:32:21;;;;;;;10.80;4.22;;;;;;;4.54;100.00;101801.75;5061711;28;20111;-78
2021/05/02 04:34:47;;;;;;;8.27;3.90;;;;;;;4.58;100.00;101803.47;5069482;28;20487;-79
2021/05/02 04:37:13;;;;;;;10.00;4.25;;;;;;;4.55;100.00;101806.97;5066761;28;20024;-79
2021/05/02 04:39:38;;;;;;;16.30;4.40;;;;;;;4.63;100.00;101806.94;5062386;28;20366;-79
2021/05/02 04:42:04;;;;;;;18.80;5.07;;;;;;;4.65;100.00;101806.03;5063595;28;20043;-79
2021/05/02 04:44:31;;;;;;;12.65;4.10;;;;;;;4.58;100.00;101809.59;5063344;28;20053;-79
2021/05/02 04:46:56;;;;;;;9.35;4.40;;;;;;;4.61;100.00;101813.91;5070937;28;20078;-79
2021/05/02 04:49:22;;;;;;;10.20;4.00;;;;;;;4.71;100.00;101817.38;5062078;28;20097;-79
2021/05/02 04:51:47;;;;;;;9.45;3.30;;;;;;;4.81;100.00;101816.44;5065996;28;20069;-79
2021/05/02 04:54:13;;;;;;;8.23;3.28;;;;;;;4.80;100.00;101820.81;5062465;28;20024;-78
2021/05/02 04:56:39;;;;;;;6.75;3.33;;;;;;;4.93;100.00;101821.63;5065202;28;20028;-79
2021/05/02 04:59:06;;;;;;;11.02;4.78;;;;;;;4.76;100.00;101820.84;5060517;28;20053;-78
2021/05/02 05:01:31;;;;;;;7.82;3.85;;;;;;;4.97;100.00;101832.94;5065950;28;20021;-79
2021/05/02 05:03:57;;;;;;;13.63;4.05;;;;;;;4.94;100.00;101839.94;5071431;28;20082;-78
2021/05/02 05:06:24;;;;;;;8.23;3.10;;;;;;;5.06;100.00;101841.63;5055340;28;20028;-78
2021/05/02 05:08:50;;;;;;;13.07;4.22;;;;;;;5.07;100.00;101842.50;5076956;28;20287;-78
2021/05/02 05:11:15;;;;;;;11.82;3.20;;;;;;;5.10;100.00;101845.09;5071659;28;20372;-78
2021/05/02 05:13:41;;;;;;;11.48;3.13;;;;;;;5.08;100.00;101842.50;5065058;28;20029;-78
2021/05/02 05:16:06;;;;;;;9.52;2.90;;;;;;;5.23;100.00;101851.16;5066490;28;20238;-78
2021/05/02 05:18:31;;;;;;;11.68;3.50;;;;;;;5.27;100.00;101853.75;5062167;28;20519;-78
2021/05/02 05:20:57;;;;;;;9.85;3.20;;;;;;;5.34;100.00;101850.19;5068436;28;20047;-78
2021/05/02 05:23:24;;;;;;;7.15;2.53;;;;;;;5.32;100.00;101861.56;5061159;28;20037;-78
2021/05/02 05:25:49;;;;;;;11.82;3.08;;;;;;;5.38;100.00;101864.16;5063461;28;20096;-79
2021/05/02 05:28:15;;;;;;;11.57;3.45;;;;;;;5.38;100.00;101859.78;5059929;28;20048;-79
2021/05/02 05:30:40;;;;;;;12.23;3.10;;;;;;;5.43;100.00;101865.00;5066307;28;20508;-78
2021/05/02 05:33:08;;;;;;;7.03;3.67;;;;;;;5.48;100.00;101867.59;5064295;28;20046;-79
2021/05/02 05:35:34;;;;;;;6.55;2.40;;;;;;;5.54;100.00;101864.94;5066217;28;20025;-79
2021/05/02 05:38:00;;;;;;;13.13;3.40;;;;;;;5.67;100.00;101867.44;5067453;28;20358;-79
2021/05/02 05:40:27;;;;;;;11.00;2.70;;;;;;;5.72;100.00;101870.00;5068128;28;20055;-80
2021/05/02 05:42:52;;;;;;;9.80;3.28;;;;;;;5.81;100.00;101867.31;5059328;28;20032;-78
2021/05/02 05:45:19;;;;;;;11.02;2.92;;;;;;;5.88;100.00;101876.03;5061279;28;20089;-79
2021/05/02 05:47:52;;;;;;;11.80;3.08;;;;;;;5.93;100.00;101880.38;5062984;28;20104;-79
2021/05/02 05:50:19;;;;;;;8.18;3.05;;;;;;;6.01;100.00;101879.44;5067978;28;20033;-79
2021/05/02 05:52:46;;;;;;;6.95;2.67;;;;;;;6.01;100.00;101880.31;5063282;28;20021;-79
2021/05/02 05:55:15;;;;;;;8.95;2.25;;;;;;;6.11;100.00;101883.72;5060368;28;20040;-79
2021/05/02 05:57:41;;;;;;;6.35;2.53;;;;;;;6.19;100.00;101882.75;5070618;28;20063;-80
2021/05/02 06:00:08;;;;;;;13.98;3.45;;;;;;;6.23;100.00;101883.63;5062464;28;20452;-79
2021/05/02 06:02:34;;;;;;;8.02;2.20;;;;;;;6.26;100.00;101874.81;5067923;28;20019;-80
2021/05/02 06:04:59;;;;;;;9.15;3.17;;;;;;;6.26;100.00;101885.31;5069025;28;20016;-79
2021/05/02 06:07:26;;;;;;;13.02;2.33;;;;;;;6.42;100.00;101884.28;5069126;28;20035;-79
2021/05/02 06:09:51;;;;;;;9.65;2.17;;;;;;;6.46;100.00;101883.34;5064185;28;20033;-79
2021/05/02 06:12:16;;;;;;;13.73;2.30;;;;;;;6.52;100.00;101882.41;5070882;28;20437;-80
2021/05/02 06:14:42;;;;;;;7.20;1.95;;;;;;;6.60;100.00;101889.34;5062264;28;20021;-79
2021/05/02 06:17:07;;;;;;;7.07;1.80;;;;;;;6.66;100.00;101888.38;5060758;28;20376;-78
2021/05/02 06:19:33;;;;;;;5.80;1.85;;;;;;;6.72;100.00;101891.81;5066424;28;20107;-78
2021/05/02 06:21:58;;;;;;;9.98;1.67;;;;;;;6.85;100.00;101887.28;5060620;28;20029;-79
2021/05/02 06:24:23;;;;;;;6.22;1.85;;;;;;;6.75;100.00;101897.03;5066794;28;20028;-79
2021/05/02 06:26:49;;;;;;;8.02;1.92;;;;;;;6.75;100.00;101891.78;5066277;28;20031;-79
2021/05/02 06:29:15;;;;;;;8.98;1.60;;;;;;;6.89;100.00;101885.50;5067061;28;20103;-79
2021/05/02 06:31:40;;;;;;;4.93;1.70;;;;;;;6.87;100.00;101895.13;5065230;28;20031;-79
2021/05/02 06:34:09;;;;;;;9.75;1.90;;;;;;;7.14;100.00;101896.56;5061563;28;20029;-79
2021/05/02 06:36:34;;;;;;;5.53;1.73;;;;;;;7.18;100.00;101896.50;5059455;28;20037;-79
2021/05/02 06:38:59;;;;;;;5.55;2.03;;;;;;;6.96;100.00;101895.03;5062394;28;20121;-79
2021/05/02 06:41:25;;;;;;;6.80;2.17;;;;;;;7.10;100.00;101895.72;5064888;28;20028;-79
2021/05/02 06:43:51;;;;;;;7.25;2.20;;;;;;;7.29;100.00;101898.13;5066993;28;20759;-79
2021/05/02 06:46:28;;;;;;;6.28;1.77;;;;;;;7.16;100.00;101898.28;5066048;28;20048;-79
2021/05/02 06:49:04;;;;;;;5.35;1.92;;;;;;;7.33;100.00;101898.06;5063476;28;20033;-79
2021/05/02 06:51:30;;;;;;;15.00;3.05;;;;;;;7.36;100.00;101891.88;5061036;28;20114;-79
2021/05/02 06:53:56;;;;;;;7.68;1.73;;;;;;;7.62;100.00;101896.72;5062319;28;20021;-79
2021/05/02 06:56:22;;;;;;;5.25;1.65;;;;;;;7.60;100.00;101894.13;5069471;28;20040;-80
2021/05/02 06:58:51;;;;;;;7.25;2.00;;;;;;;7.98;100.00;101893.53;5071968;28;20083;-79
2021/05/02 07:01:17;;;;;;;8.13;1.90;;;;;;;7.73;100.00;101897.44;5068771;28;20042;-79
2021/05/02 07:03:42;;;;;;;3.42;1.40;;;;;;;7.46;100.00;101898.72;5065261;28;20029;-79
2021/05/02 07:06:08;;;;;;;10.82;1.77;;;;;;;7.44;100.00;101900.53;5066184;28;20029;-80
2021/05/02 07:08:34;;;;;;;8.98;1.65;;;;;;;7.68;100.00;101910.69;5066660;28;20029;-80
2021/05/02 07:10:59;;;;;;;7.43;1.80;;;;;;;7.63;100.00;101906.38;5068550;28;20082;-78
2021/05/02 07:13:24;;;;;;;4.93;2.25;;;;;;;7.56;100.00;101904.72;5066805;28;20029;-79
2021/05/02 07:15:50;;;;;;;7.68;1.50;;;;;;;7.66;100.00;101907.19;5075802;28;20033;-79
2021/05/02 07:18:16;;;;;;;5.03;1.83;;;;;;;7.86;100.00;101912.16;5078238;28;20080;-79
2021/05/02 07:20:41;;;;;;;6.32;1.65;;;;;;;8.05;100.00;101920.63;5093656;28;20013;-79
2021/05/02 07:23:07;;;;;;;6.03;1.40;;;;;;;8.31;100.00;101918.38;5062650;28;20371;-79
2021/05/02 07:25:32;;;;;;;1.85;1.23;;;;;;;8.45;100.00;101927.84;5067735;28;20036;-79
2021/05/02 07:27:57;;;;;;;2.35;1.23;;;;;;;8.75;100.00;101927.28;5060675;28;20028;-79
2021/05/02 07:30:23;;;;;;;6.55;1.23;;;;;;;8.19;100.00;101929.16;5065677;28;20028;-79
2021/05/02 07:32:49;;;;;;;4.47;1.30;;;;;;;7.76;100.00;101932.47;5065457;28;21059;-79
2021/05/02 07:35:14;;;;;;;5.40;1.30;;;;;;;7.52;100.00;101940.72;5060699;28;20036;-79
2021/05/02 07:37:40;;;;;;;10.50;2.60;;;;;;;7.37;100.00;101935.69;5060098;28;20036;-79
2021/05/02 07:40:07;;;;;;;5.03;1.83;;;;;;;7.34;100.00;101933.13;5066038;28;20055;-79
2021/05/02 07:42:33;;;;;;;5.25;1.33;;;;;;;7.76;100.00;101936.88;5068184;28;20080;-79
2021/05/02 07:44:58;;;;;;;4.72;1.92;;;;;;;7.95;100.00;101938.31;5064005;28;20063;-79
2021/05/02 07:47:24;;;;;;;7.18;0.93;;;;;;;7.81;100.00;101942.94;5068155;28;20051;-78
2021/05/02 07:49:50;;;;;;;9.50;1.17;;;;;;;7.99;100.00;101942.66;5067705;28;20029;-78
2021/05/02 07:52:16;;;;;;;5.18;1.50;;;;;;;8.19;100.00;101942.31;5063199;28;20033;-78
2021/05/02 07:54:42;;;;;;;9.30;1.40;;;;;;;7.73;100.00;101943.06;5064813;28;20028;-79
2021/05/02 07:57:08;;;;;;;5.38;1.77;;;;;;;7.74;100.00;101938.66;5063894;28;20036;-78
2021/05/02 07:59:33;;;;;;;6.35;1.80;;;;;;;7.68;100.00;101944.00;5061589;28;20776;-78
2021/05/02 08:01:58;;;;;;;5.97;1.73;;;;;;;7.88;100.00;101946.31;5050972;28;20044;-79
2021/05/02 08:04:24;;;;;;;7.38;1.77;;;;;;;8.66;100.00;101934.47;5058426;28;20032;-79
2021/05/02 08:06:50;;;;;;;4.93;1.23;;;;;;;8.69;100.00;101937.06;5063854;28;20051;-79
2021/05/02 08:09:15;;;;;;;6.32;1.20;;;;;;;8.31;100.00;101941.22;5059705;28;20063;-79
2021/05/02 08:11:41;;;;;;;10.48;2.25;;;;;;;8.43;100.00;101946.31;5057034;28;20045;-79
2021/05/02 08:14:06;;;;;;;3.58;1.50;;;;;;;8.78;100.00;101939.50;5063936;28;20036;-79
2021/05/02 08:16:36;;;;;;;4.53;1.40;;;;;;;9.13;100.00;101933.53;5067123;28;20036;-79
2021/05/02 08:19:02;;;;;;;7.25;1.40;;;;;;;9.38;100.00;101933.84;5062085;28;20047;-79
2021/05/02 08:21:28;;;;;;;2.97;1.50;;;;;;;9.53;100.00;101936.16;5079260;28;20029;-78
2021/05/02 08:23:54;;;;;;;7.78;1.70;;;;;;;9.36;100.00;101940.97;5062772;28;20095;-79
2021/05/02 08:26:20;;;;;;;5.95;1.35;;;;;;;9.23;100.00;101932.41;5067897;28;20025;-78
2021/05/02 08:28:45;;;;;;;5.38;1.63;;;;;;;9.18;100.00;101930.78;5061596;28;20067;-78
2021/05/02 08:31:12;;;;;;;4.00;1.45;;;;;;;9.31;100.00;101948.97;5063369;28;20090;-78
2021/05/02 08:33:37;;;;;;;2.00;1.20;;;;;;;9.30;100.00;101941.97;5063892;28;20021;-78
2021/05/02 08:36:03;;;;;;;4.63;0.93;;;;;;;8.93;100.00;101951.53;5058564;28;20140;-80
2021/05/02 08:38:28;;;;;;;6.28;1.63;;;;;;;9.10;100.00;101944.16;5060005;28;20027;-79
2021/05/02 08:40:55;;;;;;;10.77;1.67;;;;;;;9.11;100.00;101939.75;5058969;28;20052;-79
2021/05/02 08:43:20;;;;;;;12.23;1.63;;;;;;;9.15;100.00;101950.19;5061852;28;20020;-80
2021/05/02 08:45:46;;;;;;;6.75;1.35;;;;;;;8.97;100.00;101953.19;5064853;28;20051;-79
2021/05/02 08:48:11;;;;;;;4.82;1.15;;;;;;;9.47;100.00;101953.91;5058891;28;20092;-79
2021/05/02 08:50:37;;;;;;;2.40;1.08;;;;;;;9.52;100.00;101942.34;5065358;28;20465;-79
2021/05/02 08:53:05;;;;;;;3.55;1.88;;;;;;;9.33;100.00;101941.88;5068872;28;20078;-78
2021/05/02 08:55:31;;;;;;;4.88;1.85;;;;;;;9.67;100.00;101945.53;5064475;28;20024;-78
2021/05/02 08:57:56;;;;;;;6.63;1.52;;;;;;;9.39;100.00;101946.19;5052770;28;20078;-79
2021/05/02 09:00:22;;;;;;;5.18;1.40;;;;;;;9.84;100.00;101961.88;5058120;28;20059;-78
2021/05/02 09:02:55;;;;;;;2.38;0.93;;;;;;;8.73;100.00;101950.13;5061708;28;20044;-79
2021/05/02 09:05:21;;;;;;;5.43;1.10;;;;;;;9.13;100.00;101954.63;5069350;28;20032;-79
2021/05/02 09:07:46;;;;;;;2.72;1.25;;;;;;;9.44;100.00;101951.31;5060734;28;20039;-78
2021/05/02 09:10:13;;;;;;;4.55;1.42;;;;;;;9.39;100.00;101956.72;5065266;28;20094;-79
2021/05/02 09:12:41;;;;;;;2.55;1.33;;;;;;;9.13;100.00;101959.03;5063128;28;20116;-79
2021/05/02 09:15:19;;;;;;;8.30;1.95;;;;;;;8.63;100.00;101967.03;5056932;28;20105;-78
2021/05/02 09:18:38;;;;;;;5.00;1.40;;;;;;;8.74;100.00;101975.63;5054003;28;20017;-78
2021/05/02 09:20:53;;;;;;;4.40;1.40;;;;;;;9.31;100.00;101958.66;5054004;28;20075;-79
2021/05/02 09:23:18;;;;;;;2.92;0.80;;;;;;;10.10;100.00;101962.09;5056829;28;20048;-79
2021/05/02 09:25:49;;;;;;;3.05;1.30;;;;;;;10.82;100.00;101949.66;5062250;28;20476;-79
2021/05/02 09:28:18;;;;;;;5.03;1.83;;;;;;;10.71;100.00;101950.88;5055496;28;20029;-79
2021/05/02 09:30:44;;;;;;;4.13;1.40;;;;;;;10.26;100.00;101957.34;5057843;28;20551;-78
2021/05/02 09:33:24;;;;;;;7.43;1.55;;;;;;;10.05;100.00;101957.84;5055263;28;20140;-79
2021/05/02 09:35:53;;;;;;;6.45;1.45;;;;;;;10.07;100.00;101958.66;5060178;28;20032;-78
2021/05/02 09:38:18;;;;;;;1.73;0.93;;;;;;;9.63;100.00;101955.28;5051293;28;20384;-78
2021/05/02 09:40:59;;;;;;;1.90;0.88;;;;;;;9.32;100.00;101963.88;5051187;28;20027;-79
2021/05/02 09:44:06;;;;;;;3.03;1.10;;;;;;;9.86;100.00;101960.91;5054573;28;20063;-78
2021/05/02 09:46:32;;;;;;;2.85;1.40;;;;;;;10.30;100.00;101969.56;5028766;28;20033;-78
2021/05/02 09:49:12;;;;;;;6.03;1.73;;;;;;;10.37;100.00;101971.13;5016138;28;20037;-78
2021/05/02 09:51:52;;;;;;;7.55;1.73;;;;;;;11.01;100.00;101965.03;5010827;28;20544;-79
2021/05/02 09:54:20;;;;;;;3.20;1.30;;;;;;;9.96;100.00;101960.72;5015425;28;20034;-79
2021/05/02 09:56:45;;;;;;;3.38;1.08;;;;;;;9.70;100.00;101962.19;5033182;28;20041;-78
2021/05/02 09:59:19;;;;;;;7.57;1.25;;;;;;;9.39;100.00;101964.66;5035113;28;20057;-78
2021/05/02 10:02:12;;;;;;;4.15;1.17;;;;;;;9.18;100.00;101968.56;5033465;28;20029;-78
2021/05/02 10:04:43;;;;;;;4.13;1.30;;;;;;;9.52;100.00;101966.09;5028985;28;20046;-78
2021/05/02 10:07:10;;;;;;;2.33;1.13;;;;;;;9.18;100.00;101978.25;5031423;28;20185;-78
2021/05/02 10:09:37;;;;;;;3.15;1.40;;;;;;;9.60;100.00;101969.44;5035278;28;20047;-79
2021/05/02 10:12:09;;;;;;;5.32;1.60;;;;;;;10.48;100.00;101975.28;5043929;28;20782;-79
2021/05/02 10:14:35;;;;;;;4.18;1.30;;;;;;;10.71;100.00;101978.19;5019426;28;20037;-78
2021/05/02 10:17:01;;;;;;;2.30;1.10;;;;;;;9.81;100.00;101986.56;5040112;28;20044;-79
2021/05/02 10:19:27;;;;;;;1.42;1.08;;;;;;;9.42;100.00;101977.75;5052618;28;20032;-79
2021/05/02 10:21:53;;;;;;;5.13;1.27;;;;;;;9.31;100.00;101971.84;5053583;28;20024;-79
2021/05/02 10:24:18;;;;;;;2.67;1.17;;;;;;;8.87;100.00;101993.84;5052710;28;21064;-79
2021/05/02 10:26:44;;;;;;;2.22;1.00;;;;;;;9.34;100.00;102000.81;5053072;28;20464;-79
2021/05/02 10:29:10;;;;;;;3.00;1.10;;;;;;;8.13;100.00;102002.09;5056659;28;20052;-79
2021/05/02 10:31:41;;;;;;;3.15;2.25;;;;;;;8.25;100.00;101996.66;5059219;28;20036;-79
2021/05/02 10:34:31;;;;;;;8.00;1.30;;;;;;;7.97;100.00;102001.47;5048407;28;20027;-79
2021/05/02 10:37:21;;;;;;;1.67;1.10;;;;;;;7.83;100.00;102008.69;5052341;28;20052;-79
2021/05/02 10:39:58;;;;;;;4.72;1.02;;;;;;;7.92;100.00;102005.94;5062344;28;20031;-79
2021/05/02 10:42:35;;;;;;;4.18;1.27;;;;;;;7.64;100.00;102002.84;5065942;28;20021;-79
2021/05/02 10:45:42;;;;;;;4.57;0.85;;;;;;;8.03;100.00;102004.00;5066319;28;20035;-79
2021/05/02 10:48:13;;;;;;;2.15;0.93;;;;;;;8.22;100.00;102004.59;5086414;28;20040;-79
2021/05/02 10:50:54;;;;;;;1.30;0.93;;;;;;;8.05;100.00;101999.59;5079034;28;20087;-79
2021/05/02 10:53:27;;;;;;;2.97;1.10;;;;;;;8.65;100.00;102004.78;5054246;28;20132;-78
2021/05/02 10:56:38;;;;;;;2.33;1.00;;;;;;;9.38;100.00;102004.22;5055661;28;20028;-79
2021/05/02 10:59:04;;;;;;;3.72;1.23;;;;;;;10.01;100.00;102001.09;5058696;28;20052;-79
2021/05/02 11:01:29;;;;;;;5.32;0.90;;;;;;;9.22;100.00;101999.28;5060427;28;20041;-79
2021/05/02 11:03:54;;;;;;;4.68;1.00;;;;;;;8.91;100.00;102013.97;5053936;28;20017;-79
2021/05/02 11:06:41;;;;;;;5.90;1.70;;;;;;;9.37;100.00;102002.50;5057309;28;20392;-78
2021/05/02 11:09:09;;;;;;;2.05;1.63;;;;;;;11.61;100.00;102002.06;5050536;28;20556;-78
2021/05/02 11:11:41;;;;;;;4.22;2.22;;;;;;;11.94;100.00;101994.00;5056337;28;20063;-79
2021/05/02 11:14:06;;;;;;;5.78;1.77;;;;;;;11.78;100.00;101996.25;5056816;28;20017;-77
2021/05/02 11:16:32;;;;;;;4.20;1.67;;;;;;;12.11;100.00;101985.53;5055240;28;20133;-78
2021/05/02 11:18:57;;;;;;;5.15;1.63;;;;;;;11.10;100.00;101978.88;5051943;28;20033;-79
2021/05/02 11:21:24;;;;;;;6.18;1.73;;;;;;;11.32;100.00;101978.25;5052201;28;20029;-78
2021/05/02 11:23:58;;;;;;;5.80;3.15;;;;;;;13.30;100.00;101970.72;5059659;28;20028;-79
2021/05/02 11:29:56;;;;;;;7.97;1.60;;;;;;;14.33;72.83;101980.78;5055183;28;20051;-78